Altadena, CA (91001)

3:29 PM PST on December 25, 2014 (GMT -0800)
Top Of Lake Avenue | Change Station
CLOSE
Current Station
Personal Weather Station
Location: Altadena, CA
Elevation: 1680 ft
Nearby Weather Stations

Elev 1680 ft 34.20 °N, 118.14 °W | Updated 3 minutes ago

Clear
Clear
57.6 °F
Feels Like 57.6 °F
N
3.0
Wind Variable Wind from NW
Gusts 10.5 mph

Today
High -- | Low -- °F
--% Chance of Precip.
Yesterday
High -- | Low -- °F
Precip. -- in
6:56 AM 4:49 PM
Waxing Crescent, 20% visible
Pressure 29.83 in
Visibility 10.0 miles
Clouds Clear
Dew Point 9 °F
Humidity 14%
Rainfall -999.00 in
Snow Depth Not available.
UV 1 out of 12
Pollen 6.60 out of 12
Air Quality Not available.
Flu Activity Not available.
METAR KCQT 252247Z AUTO VRB04KT 10SM CLR 18/M08 A2983 RMK AO2 SLP099 T01781083

More Conditions Fewer Conditions

Pressure 29.83 in
Visibility 10.0 miles
Clouds Clear
Dew Point 9 °F
Humidity 14%
Rainfall -999.00 in
Snow Depth Not available.
UV 1 out of 12
Pollen 6.60 out of 12
Air Quality Not available.
Flu Activity Not available.
METAR KCQT 252247Z AUTO VRB04KT 10SM CLR 18/M08 A2983 RMK AO2 SLP099 T01781083

More Conditions Fewer Conditions

10-Day Weather Forecast

Almanac

Astronomy

Dec. 25, 2014 Rise Set
Actual Time
Civil Twilight
Nautical Twilight
Astronomical Twilight
Moon
Length of Visible Light
Length of Day
Tomorrow will be .
, % of the Moon is Illuminated

Today's Extremes

State Highs State Lows

Community

WunderPhotos

Upload Photos

1,780,443 photos uploaded!

WunderBlogs® & News

Nearby

Air Quality

  Air Quality AQ Index Pollutant
Not available.

Snow Depth

Station Depth Elevation

Earthquake Activity

City Distance Mag. Time & Date
Minimum magnitude displayed is 2.5.

Coastal Water Temperatures

Place Temperature

Nearby Weather Stations